sensor_id;sensor_type;location;lat;lon;timestamp;P1;P2;P0
55076;PMS7003;40971;44.702;11.030;2023-06-19T00:01:56;36.50;35.25;23.75
55076;PMS7003;40971;44.702;11.030;2023-06-19T00:11:59;37.33;35.00;25.00
55076;PMS7003;40971;44.702;11.030;2023-06-19T00:22:03;31.67;31.67;23.00
55076;PMS7003;40971;44.702;11.030;2023-06-19T00:32:06;34.25;32.75;22.00
55076;PMS7003;40971;44.702;11.030;2023-06-19T00:42:09;34.67;34.00;22.67
55076;PMS7003;40971;44.702;11.030;2023-06-19T00:52:11;32.00;31.00;23.00
55076;PMS7003;40971;44.702;11.030;2023-06-19T01:02:13;32.33;29.67;23.00
55076;PMS7003;40971;44.702;11.030;2023-06-19T01:12:18;40.25;37.50;25.50
55076;PMS7003;40971;44.702;11.030;2023-06-19T01:22:29;37.67;34.33;23.67
55076;PMS7003;40971;44.702;11.030;2023-06-19T01:32:45;34.00;33.00;23.50
55076;PMS7003;40971;44.702;11.030;2023-06-19T01:43:08;37.67;35.33;24.67
55076;PMS7003;40971;44.702;11.030;2023-06-19T01:53:12;39.67;36.33;25.00
55076;PMS7003;40971;44.702;11.030;2023-06-19T02:03:15;42.25;37.75;26.50
55076;PMS7003;40971;44.702;11.030;2023-06-19T02:13:19;41.67;39.00;26.33
55076;PMS7003;40971;44.702;11.030;2023-06-19T02:23:20;40.33;38.67;24.00
55076;PMS7003;40971;44.702;11.030;2023-06-19T02:33:23;36.33;36.00;25.00
55076;PMS7003;40971;44.702;11.030;2023-06-19T02:43:24;38.67;37.33;24.00
55076;PMS7003;40971;44.702;11.030;2023-06-19T02:53:28;41.50;36.75;24.88
55076;PMS7003;40971;44.702;11.030;2023-06-19T03:03:30;36.33;35.00;25.33
55076;PMS7003;40971;44.702;11.030;2023-06-19T03:13:43;38.00;37.50;23.25
55076;PMS7003;40971;44.702;11.030;2023-06-19T03:23:48;37.25;35.50;24.00
55076;PMS7003;40971;44.702;11.030;2023-06-19T03:33:50;45.67;38.33;24.67
55076;PMS7003;40971;44.702;11.030;2023-06-19T03:43:53;34.33;34.33;24.33
55076;PMS7003;40971;44.702;11.030;2023-06-19T03:53:55;37.00;36.33;24.33
55076;PMS7003;40971;44.702;11.030;2023-06-19T04:03:56;37.00;36.00;25.00
55076;PMS7003;40971;44.702;11.030;2023-06-19T04:14:01;40.22;36.67;25.22
55076;PMS7003;40971;44.702;11.030;2023-06-19T04:24:06;37.89;35.89;24.11
55076;PMS7003;40971;44.702;11.030;2023-06-19T04:34:11;40.33;35.33;23.67
55076;PMS7003;40971;44.702;11.030;2023-06-19T04:44:13;36.00;32.50;23.75
55076;PMS7003;40971;44.702;11.030;2023-06-19T04:54:16;33.50;33.50;24.00
55076;PMS7003;40971;44.702;11.030;2023-06-19T05:04:18;30.00;29.67;20.67
55076;PMS7003;40971;44.702;11.030;2023-06-19T05:14:20;28.67;28.00;20.33
55076;PMS7003;40971;44.702;11.030;2023-06-19T05:24:25;33.33;30.56;22.11
55076;PMS7003;40971;44.702;11.030;2023-06-19T05:34:28;35.00;33.67;24.00
55076;PMS7003;40971;44.702;11.030;2023-06-19T05:44:32;35.00;34.00;24.75
55076;PMS7003;40971;44.702;11.030;2023-06-19T05:54:34;37.50;34.50;22.50
55076;PMS7003;40971;44.702;11.030;2023-06-19T06:04:37;31.50;31.50;22.50
55076;PMS7003;40971;44.702;11.030;2023-06-19T06:14:40;38.33;34.67;22.00
55076;PMS7003;40971;44.702;11.030;2023-06-19T06:24:43;33.33;32.33;22.67
55076;PMS7003;40971;44.702;11.030;2023-06-19T06:34:45;30.33;30.33;21.00
55076;PMS7003;40971;44.702;11.030;2023-06-19T06:44:47;25.67;24.67;18.67
55076;PMS7003;40971;44.702;11.030;2023-06-19T06:54:49;24.75;24.75;19.00
55076;PMS7003;40971;44.702;11.030;2023-06-19T07:04:52;24.67;23.67;18.00
55076;PMS7003;40971;44.702;11.030;2023-06-19T07:14:54;27.33;25.33;20.00
55076;PMS7003;40971;44.702;11.030;2023-06-19T07:24:55;28.80;28.80;20.40
55076;PMS7003;40971;44.702;11.030;2023-06-19T07:34:57;24.00;24.00;19.00
55076;PMS7003;40971;44.702;11.030;2023-06-19T07:45:01;18.25;16.88;13.00
55076;PMS7003;40971;44.702;11.030;2023-06-19T07:55:06;24.67;24.67;16.11
55076;PMS7003;40971;44.702;11.030;2023-06-19T08:05:11;19.33;19.33;15.11
55076;PMS7003;40971;44.702;11.030;2023-06-19T08:15:14;22.33;21.67;15.67
55076;PMS7003;40971;44.702;11.030;2023-06-19T08:25:18;21.00;20.88;15.38
55076;PMS7003;40971;44.702;11.030;2023-06-19T08:35:22;19.63;19.63;15.63
55076;PMS7003;40971;44.702;11.030;2023-06-19T08:45:25;18.75;17.75;14.50
55076;PMS7003;40971;44.702;11.030;2023-06-19T08:55:29;19.33;19.33;14.00
55076;PMS7003;40971;44.702;11.030;2023-06-19T09:05:32;19.67;19.67;15.00
55076;PMS7003;40971;44.702;11.030;2023-06-19T09:15:35;17.33;16.00;14.00
55076;PMS7003;40971;44.702;11.030;2023-06-19T09:25:52;17.33;17.00;14.00
55076;PMS7003;40971;44.702;11.030;2023-06-19T09:35:59;17.67;17.67;13.67
55076;PMS7003;40971;44.702;11.030;2023-06-19T09:46:01;20.00;18.00;13.00
55076;PMS7003;40971;44.702;11.030;2023-06-19T09:56:04;14.33;14.33;13.33
55076;PMS7003;40971;44.702;11.030;2023-06-19T10:06:05;15.67;15.33;11.67
55076;PMS7003;40971;44.702;11.030;2023-06-19T10:16:26;17.33;17.33;14.22
55076;PMS7003;40971;44.702;11.030;2023-06-19T10:26:32;14.67;14.33;11.33
55076;PMS7003;40971;44.702;11.030;2023-06-19T10:36:34;16.00;16.00;13.00
55076;PMS7003;40971;44.702;11.030;2023-06-19T10:46:38;15.57;14.57;12.71
55076;PMS7003;40971;44.702;11.030;2023-06-19T10:56:40;19.00;17.67;14.00
55076;PMS7003;40971;44.702;11.030;2023-06-19T11:06:42;15.60;15.60;13.40
55076;PMS7003;40971;44.702;11.030;2023-06-19T11:16:46;19.33;18.33;14.00
55076;PMS7003;40971;44.702;11.030;2023-06-19T11:26:50;18.67;18.67;13.33
55076;PMS7003;40971;44.702;11.030;2023-06-19T11:36:55;14.67;14.67;11.78
55076;PMS7003;40971;44.702;11.030;2023-06-19T11:46:57;15.33;15.33;12.00
55076;PMS7003;40971;44.702;11.030;2023-06-19T11:57:02;18.00;17.33;13.33
55076;PMS7003;40971;44.702;11.030;2023-06-19T12:07:07;16.33;16.33;14.11
55076;PMS7003;40971;44.702;11.030;2023-06-19T12:17:07;20.00;19.50;14.50
55076;PMS7003;40971;44.702;11.030;2023-06-19T12:27:12;17.78;17.78;13.67
55076;PMS7003;40971;44.702;11.030;2023-06-19T12:37:14;14.33;14.33;12.00
55076;PMS7003;40971;44.702;11.030;2023-06-19T12:47:17;15.80;15.20;12.00
55076;PMS7003;40971;44.702;11.030;2023-06-19T12:57:19;15.67;15.67;12.00
55076;PMS7003;40971;44.702;11.030;2023-06-19T13:07:20;15.33;15.33;11.67
55076;PMS7003;40971;44.702;11.030;2023-06-19T13:17:23;15.00;15.00;12.00
55076;PMS7003;40971;44.702;11.030;2023-06-19T13:27:26;15.67;14.67;11.00
55076;PMS7003;40971;44.702;11.030;2023-06-19T13:37:29;18.33;18.33;13.33
55076;PMS7003;40971;44.702;11.030;2023-06-19T13:47:32;16.40;15.60;12.20
55076;PMS7003;40971;44.702;11.030;2023-06-19T13:57:34;17.67;17.67;15.00
55076;PMS7003;40971;44.702;11.030;2023-06-19T14:07:35;17.20;17.20;14.60
55076;PMS7003;40971;44.702;11.030;2023-06-19T14:17:38;17.20;17.20;14.60
55076;PMS7003;40971;44.702;11.030;2023-06-19T14:27:43;19.00;17.33;13.33
55076;PMS7003;40971;44.702;11.030;2023-06-19T14:37:45;20.00;19.67;14.33
55076;PMS7003;40971;44.702;11.030;2023-06-19T14:47:49;17.44;17.44;14.33
55076;PMS7003;40971;44.702;11.030;2023-06-19T14:57:51;16.33;16.33;13.67
55076;PMS7003;40971;44.702;11.030;2023-06-19T15:07:52;15.00;15.00;12.00
55076;PMS7003;40971;44.702;11.030;2023-06-19T15:17:54;17.00;16.33;13.33
55076;PMS7003;40971;44.702;11.030;2023-06-19T15:27:55;16.00;16.00;13.00
55076;PMS7003;40971;44.702;11.030;2023-06-19T15:37:59;15.71;15.71;14.14
55076;PMS7003;40971;44.702;11.030;2023-06-19T15:48:01;15.67;15.33;13.67
55076;PMS7003;40971;44.702;11.030;2023-06-19T15:58:02;17.20;16.40;12.80
55076;PMS7003;40971;44.702;11.030;2023-06-19T16:08:06;15.88;15.63;12.25
55076;PMS7003;40971;44.702;11.030;2023-06-19T16:18:08;18.00;17.67;13.67
55076;PMS7003;40971;44.702;11.030;2023-06-19T16:28:10;16.33;16.33;15.00
55076;PMS7003;40971;44.702;11.030;2023-06-19T16:38:12;18.33;18.33;15.00
55076;PMS7003;40971;44.702;11.030;2023-06-19T16:48:14;17.00;17.00;14.33
55076;PMS7003;40971;44.702;11.030;2023-06-19T16:58:15;19.00;18.00;15.00
55076;PMS7003;40971;44.702;11.030;2023-06-19T17:08:17;20.25;20.25;14.00
55076;PMS7003;40971;44.702;11.030;2023-06-19T17:18:19;20.00;20.00;15.33
55076;PMS7003;40971;44.702;11.030;2023-06-19T17:28:21;22.00;19.67;16.00
55076;PMS7003;40971;44.702;11.030;2023-06-19T17:38:23;15.00;15.00;13.50
55076;PMS7003;40971;44.702;11.030;2023-06-19T17:48:26;20.33;19.00;14.33
55076;PMS7003;40971;44.702;11.030;2023-06-19T17:58:29;17.00;17.00;15.00
55076;PMS7003;40971;44.702;11.030;2023-06-19T18:08:33;19.00;19.00;16.00
55076;PMS7003;40971;44.702;11.030;2023-06-19T18:18:34;20.50;20.50;16.00
55076;PMS7003;40971;44.702;11.030;2023-06-19T18:28:37;20.00;20.00;15.67
55076;PMS7003;40971;44.702;11.030;2023-06-19T18:38:41;21.25;21.25;16.25
55076;PMS7003;40971;44.702;11.030;2023-06-19T18:48:42;22.00;21.00;17.67
55076;PMS7003;40971;44.702;11.030;2023-06-19T18:58:46;24.00;24.00;19.00
55076;PMS7003;40971;44.702;11.030;2023-06-19T19:08:49;24.00;24.00;19.67
55076;PMS7003;40971;44.702;11.030;2023-06-19T19:18:56;22.50;21.50;16.00
55076;PMS7003;40971;44.702;11.030;2023-06-19T19:29:00;26.38;25.50;18.75
55076;PMS7003;40971;44.702;11.030;2023-06-19T19:39:01;29.00;27.00;19.33
55076;PMS7003;40971;44.702;11.030;2023-06-19T19:49:03;27.67;26.33;19.00
55076;PMS7003;40971;44.702;11.030;2023-06-19T19:59:05;27.00;26.33;19.33
55076;PMS7003;40971;44.702;11.030;2023-06-19T20:09:08;28.75;28.75;21.00
55076;PMS7003;40971;44.702;11.030;2023-06-19T20:19:10;32.50;30.00;21.00
55076;PMS7003;40971;44.702;11.030;2023-06-19T20:29:12;26.50;25.25;18.25
55076;PMS7003;40971;44.702;11.030;2023-06-19T20:39:15;28.00;28.00;20.25
55076;PMS7003;40971;44.702;11.030;2023-06-19T20:49:16;23.00;23.00;16.40
55076;PMS7003;40971;44.702;11.030;2023-06-19T20:59:18;25.33;22.67;18.00
55076;PMS7003;40971;44.702;11.030;2023-06-19T21:09:20;25.33;24.33;19.33
55076;PMS7003;40971;44.702;11.030;2023-06-19T21:19:21;21.60;20.40;16.00
55076;PMS7003;40971;44.702;11.030;2023-06-19T21:29:24;19.00;19.00;15.33
55076;PMS7003;40971;44.702;11.030;2023-06-19T21:39:26;23.00;21.67;17.00
55076;PMS7003;40971;44.702;11.030;2023-06-19T21:49:31;27.67;26.56;18.11
55076;PMS7003;40971;44.702;11.030;2023-06-19T21:59:41;23.00;19.33;16.00
55076;PMS7003;40971;44.702;11.030;2023-06-19T22:09:42;28.33;26.00;18.00
55076;PMS7003;40971;44.702;11.030;2023-06-19T22:19:44;22.33;22.33;18.00
55076;PMS7003;40971;44.702;11.030;2023-06-19T22:29:47;23.33;23.33;19.33
55076;PMS7003;40971;44.702;11.030;2023-06-19T22:39:50;28.00;26.33;20.00
55076;PMS7003;40971;44.702;11.030;2023-06-19T22:49:52;23.67;22.33;15.00
55076;PMS7003;40971;44.702;11.030;2023-06-19T22:59:54;28.67;25.67;18.00
55076;PMS7003;40971;44.702;11.030;2023-06-19T23:09:55;26.67;25.33;18.67
55076;PMS7003;40971;44.702;11.030;2023-06-19T23:19:57;36.00;33.33;22.33
55076;PMS7003;40971;44.702;11.030;2023-06-19T23:30:02;27.22;26.00;20.00
55076;PMS7003;40971;44.702;11.030;2023-06-19T23:40:06;30.67;30.67;20.33
55076;PMS7003;40971;44.702;11.030;2023-06-19T23:50:10;30.00;30.00;20.67
